createdAt,value
2018-02-12T00:00:52.276Z,23.45
2018-02-12T00:03:19.011Z,21.95
2018-02-12T00:05:45.617Z,27.55
2018-02-12T00:08:12.072Z,23.95
2018-02-12T00:10:38.557Z,26.67
2018-02-12T00:13:04.978Z,24.27
2018-02-12T00:15:31.452Z,26.85
2018-02-12T00:17:58.248Z,28.83
2018-02-12T00:20:24.756Z,28.57
2018-02-12T00:22:51.161Z,27.67
2018-02-12T00:25:17.624Z,26.77
2018-02-12T00:27:44.045Z,29.30
2018-02-12T00:30:10.528Z,30.17
2018-02-12T00:32:37.572Z,27.10
2018-02-12T00:35:04.054Z,33.00
2018-02-12T00:37:30.530Z,28.62
2018-02-12T00:39:57.469Z,26.73
2018-02-12T00:42:24.061Z,31.73
2018-02-12T00:44:50.518Z,29.52
2018-02-12T00:47:17.037Z,31.20
2018-02-12T00:49:43.449Z,30.52
2018-02-12T00:52:10.592Z,32.80
2018-02-12T00:54:37.062Z,34.70
2018-02-12T00:57:03.502Z,31.75
2018-02-12T00:59:29.909Z,37.88
2018-02-12T01:01:57.205Z,31.73
2018-02-12T01:04:23.809Z,32.72
2018-02-12T01:06:50.228Z,31.70
2018-02-12T01:09:16.672Z,44.83
2018-02-12T01:11:43.121Z,29.23
2018-02-12T01:14:10.398Z,35.05
2018-02-12T01:16:37.130Z,33.55
2018-02-12T01:19:03.601Z,29.05
2018-02-12T01:21:30.065Z,33.13
2018-02-12T01:23:57.607Z,27.25
2018-02-12T01:26:24.839Z,29.17
2018-02-12T01:28:51.276Z,27.23
2018-02-12T01:31:17.890Z,26.60
2018-02-12T01:33:44.321Z,32.38
2018-02-12T01:36:11.574Z,28.62
2018-02-12T01:38:38.041Z,29.70
2018-02-12T01:41:04.468Z,30.77
2018-02-12T01:43:30.917Z,28.97
2018-02-12T01:45:57.425Z,23.60
2018-02-12T01:48:23.932Z,22.33
2018-02-12T01:50:50.420Z,24.45
2018-02-12T01:53:16.934Z,25.53
2018-02-12T01:55:43.370Z,28.62
2018-02-12T01:58:09.827Z,26.52
2018-02-12T02:00:37.246Z,28.90
2018-02-12T02:03:03.661Z,25.65
2018-02-12T02:05:30.060Z,24.37
2018-02-12T02:07:56.665Z,24.70
2018-02-12T02:10:23.110Z,23.38
2018-02-12T02:12:49.548Z,28.87
2018-02-12T02:15:15.997Z,27.20
2018-02-12T02:17:42.455Z,32.47
2018-02-12T02:20:08.900Z,28.17
2018-02-12T02:22:35.671Z,28.00
2018-02-12T02:25:02.098Z,30.30
2018-02-12T02:27:28.574Z,25.33
2018-02-12T02:29:55.770Z,29.27
2018-02-12T02:32:22.236Z,29.67
2018-02-12T02:34:48.643Z,31.92
2018-02-12T02:37:15.080Z,35.00
2018-02-12T02:39:41.541Z,31.52
2018-02-12T02:42:07.942Z,28.37
2018-02-12T02:44:34.774Z,40.10
2018-02-12T02:47:01.973Z,37.25
2018-02-12T02:49:28.461Z,39.13
2018-02-12T02:51:55.253Z,33.23
2018-02-12T02:54:21.648Z,35.17
2018-02-12T02:56:48.062Z,36.63
2018-02-12T02:59:14.571Z,37.30
2018-02-12T03:01:41.781Z,40.93
2018-02-12T03:04:08.274Z,37.13
2018-02-12T03:06:34.722Z,35.05
2018-02-12T03:09:01.107Z,35.15
2018-02-12T03:11:27.545Z,29.20
2018-02-12T03:13:54.782Z,31.37
2018-02-12T03:16:21.263Z,30.67
2018-02-12T03:18:47.724Z,29.92
2018-02-12T03:21:14.558Z,33.45
2018-02-12T03:23:41.763Z,33.20
2018-02-12T03:26:08.182Z,34.45
2018-02-12T03:28:34.645Z,32.90
2018-02-12T03:31:01.891Z,32.13
2018-02-12T03:33:29.172Z,34.60
2018-02-12T03:35:55.729Z,35.38
2018-02-12T03:38:22.169Z,36.57
2018-02-12T03:40:48.533Z,32.63
2018-02-12T03:43:14.959Z,38.83
2018-02-12T03:45:52.309Z,35.72
2018-02-12T03:48:18.842Z,30.58
2018-02-12T03:50:45.344Z,32.93
2018-02-12T03:53:12.500Z,38.45
2018-02-12T03:55:39.250Z,36.67
2018-02-12T03:58:05.665Z,36.63
2018-02-12T04:00:32.140Z,31.97
2018-02-12T04:02:58.628Z,34.58
2018-02-12T04:05:25.119Z,31.90
2018-02-12T04:07:51.505Z,38.17
2018-02-12T04:10:17.956Z,37.28
2018-02-12T04:12:44.368Z,35.88
2018-02-12T04:15:11.553Z,37.45
2018-02-12T04:17:38.010Z,32.97
2018-02-12T04:20:04.496Z,40.25
2018-02-12T04:22:31.682Z,39.95
2018-02-12T04:24:58.550Z,34.97
2018-02-12T04:27:25.016Z,36.47
2018-02-12T04:29:52.132Z,42.47
2018-02-12T04:32:19.333Z,36.42
2018-02-12T04:34:46.536Z,41.88
2018-02-12T04:37:12.988Z,35.83
2018-02-12T04:39:40.216Z,38.67
2018-02-12T04:42:06.688Z,45.90
2018-02-12T04:44:33.132Z,40.43
2018-02-12T04:47:00.543Z,41.58
2018-02-12T04:49:27.052Z,44.63
2018-02-12T04:51:53.473Z,44.38
2018-02-12T04:54:19.979Z,44.85
2018-02-12T04:56:47.140Z,44.53
2018-02-12T04:59:14.290Z,43.40
2018-02-12T05:01:41.468Z,56.15
2018-02-12T05:04:07.933Z,47.50
2018-02-12T05:06:34.400Z,48.72
2018-02-12T05:09:01.121Z,50.40
2018-02-12T05:11:27.534Z,47.55
2018-02-12T05:13:53.955Z,48.57
2018-02-12T05:16:20.389Z,52.00
2018-02-12T05:18:46.768Z,48.42
2018-02-12T05:21:13.932Z,50.90
2018-02-12T05:23:41.480Z,53.10
2018-02-12T05:26:07.930Z,50.95
2018-02-12T05:28:35.101Z,52.40
2018-02-12T05:31:01.560Z,50.60
2018-02-12T05:33:28.121Z,48.08
2018-02-12T05:35:54.561Z,56.60
2018-02-12T05:38:21.298Z,54.57
2018-02-12T05:40:47.753Z,52.55
2018-02-12T05:43:14.151Z,49.60
2018-02-12T05:45:40.982Z,51.58
2018-02-12T05:48:07.429Z,50.00
2018-02-12T05:50:33.844Z,53.38
2018-02-12T05:53:00.670Z,54.90
2018-02-12T05:55:27.083Z,51.75
2018-02-12T05:57:54.258Z,47.53
2018-02-12T06:00:20.724Z,50.47
2018-02-12T06:02:47.168Z,55.53
2018-02-12T06:05:13.574Z,49.63
2018-02-12T06:07:40.014Z,50.30
2018-02-12T06:10:06.430Z,49.03
2018-02-12T06:12:32.833Z,47.87
2018-02-12T06:14:59.427Z,48.92
2018-02-12T06:17:26.594Z,57.37
2018-02-12T06:19:52.981Z,47.85
2018-02-12T06:22:20.054Z,48.23
2018-02-12T06:24:46.420Z,52.80
2018-02-12T06:27:12.770Z,51.47
2018-02-12T06:29:40.296Z,45.25
2018-02-12T06:32:06.797Z,50.67
2018-02-12T06:34:33.225Z,43.42
2018-02-12T06:36:59.828Z,42.27
2018-02-12T06:39:26.311Z,42.85
2018-02-12T06:41:52.760Z,46.92
2018-02-12T06:44:19.204Z,44.10
2018-02-12T06:46:45.774Z,41.50
2018-02-12T06:49:12.899Z,48.23
2018-02-12T06:51:39.623Z,47.05
2018-02-12T06:54:06.766Z,43.93
2018-02-12T06:56:33.230Z,47.80
2018-02-12T06:58:59.712Z,44.40
2018-02-12T07:01:26.217Z,44.00
2018-02-12T07:03:53.482Z,43.53
2018-02-12T07:06:19.960Z,39.87
2018-02-12T07:08:46.396Z,42.97
2018-02-12T07:11:12.861Z,43.90
2018-02-12T07:13:39.431Z,46.93
2018-02-12T07:16:05.935Z,43.87
2018-02-12T07:18:32.409Z,46.50
2018-02-12T07:20:58.959Z,46.37
2018-02-12T07:23:25.432Z,55.77
2018-02-12T07:25:52.044Z,43.87
2018-02-12T07:28:18.504Z,48.33
2018-02-12T07:30:44.976Z,54.40
2018-02-12T07:33:11.451Z,47.47
2018-02-12T07:35:38.187Z,44.77
2018-02-12T07:38:05.368Z,44.70
2018-02-12T07:40:39.215Z,44.00
2018-02-12T07:43:05.645Z,42.87
2018-02-12T07:45:32.233Z,52.10
2018-02-12T07:47:58.775Z,43.77
2018-02-12T07:50:25.164Z,44.87
2018-02-12T07:52:51.556Z,45.43
2018-02-12T07:55:18.087Z,39.63
2018-02-12T07:57:44.562Z,40.17
2018-02-12T08:00:11.769Z,42.50
2018-02-12T08:02:38.224Z,39.17
2018-02-12T08:05:05.426Z,40.10
2018-02-12T08:07:32.613Z,44.43
2018-02-12T08:10:00.241Z,36.43
2018-02-12T08:12:26.774Z,38.20
2018-02-12T08:14:53.329Z,41.77
2018-02-12T08:17:20.286Z,34.97
2018-02-12T08:19:47.458Z,43.63
2018-02-12T08:22:13.910Z,38.43
2018-02-12T08:24:40.376Z,38.43
2018-02-12T08:27:06.786Z,34.37
2018-02-12T08:29:33.264Z,33.63
2018-02-12T08:31:59.762Z,36.60
2018-02-12T08:34:26.183Z,29.83
2018-02-12T08:36:52.655Z,40.77
2018-02-12T08:39:19.168Z,41.17
2018-02-12T08:41:45.634Z,38.67
2018-02-12T08:44:12.029Z,37.93
2018-02-12T08:46:39.244Z,46.13
2018-02-12T08:49:05.668Z,35.37
2018-02-12T08:51:32.831Z,37.70
2018-02-12T08:53:59.821Z,43.63
2018-02-12T08:56:26.232Z,40.10
2018-02-12T08:58:52.580Z,42.40
2018-02-12T09:01:19.061Z,37.33
2018-02-12T09:03:45.571Z,37.93
2018-02-12T09:06:11.989Z,38.70
2018-02-12T09:08:38.445Z,36.67
2018-02-12T09:11:04.910Z,36.73
2018-02-12T09:13:31.307Z,33.93
2018-02-12T09:15:57.772Z,39.10
2018-02-12T09:18:24.901Z,33.87
2018-02-12T09:20:51.393Z,40.17
2018-02-12T09:23:17.995Z,34.17
2018-02-12T09:25:45.326Z,36.93
2018-02-12T09:28:11.801Z,39.83
2018-02-12T09:30:38.266Z,30.70
2018-02-12T09:33:04.659Z,32.33
2018-02-12T09:35:31.096Z,33.07
2018-02-12T09:37:58.744Z,29.40
2018-02-12T09:40:25.156Z,27.30
2018-02-12T09:42:51.604Z,34.73
2018-02-12T09:45:18.100Z,30.73
2018-02-12T09:47:44.741Z,34.87
2018-02-12T09:50:11.132Z,34.07
2018-02-12T09:52:37.632Z,34.37
2018-02-12T09:55:04.187Z,38.60
2018-02-12T09:57:30.720Z,34.33
2018-02-12T09:59:57.282Z,36.07
2018-02-12T10:02:24.450Z,42.90
2018-02-12T10:04:50.846Z,36.47
2018-02-12T10:07:17.340Z,27.63
2018-02-12T10:09:43.778Z,30.20
2018-02-12T10:12:10.244Z,32.87
2018-02-12T10:14:36.719Z,34.00
2018-02-12T10:17:03.329Z,32.27
2018-02-12T10:19:30.564Z,40.53
2018-02-12T10:21:56.998Z,22.40
2018-02-12T10:24:23.568Z,28.87
2018-02-12T10:26:49.995Z,28.20
2018-02-12T10:29:16.425Z,28.07
2018-02-12T10:31:43.629Z,27.37
2018-02-12T10:34:10.017Z,31.13
2018-02-12T10:36:36.527Z,29.77
2018-02-12T10:39:03.397Z,30.87
2018-02-12T10:41:29.846Z,30.10
2018-02-12T10:43:56.298Z,27.57
2018-02-12T10:46:22.760Z,29.97
2018-02-12T10:48:49.234Z,26.20
2018-02-12T10:51:16.453Z,25.67
2018-02-12T10:53:43.004Z,35.37
2018-02-12T10:56:09.416Z,29.17
2018-02-12T10:58:35.923Z,30.20
2018-02-12T11:01:02.657Z,21.60
2018-02-12T11:03:29.125Z,27.23
2018-02-12T11:05:55.785Z,27.37
2018-02-12T11:08:22.323Z,22.70
2018-02-12T11:10:48.926Z,18.23
2018-02-12T11:13:15.415Z,27.17
2018-02-12T11:15:41.956Z,24.97
2018-02-12T11:18:08.490Z,28.23
2018-02-12T11:20:35.002Z,28.30
2018-02-12T11:23:01.589Z,22.83
2018-02-12T11:25:28.089Z,26.67
2018-02-12T11:27:54.520Z,23.13
2018-02-12T11:30:21.026Z,21.47
2018-02-12T11:32:47.475Z,28.70
2018-02-12T11:35:14.631Z,24.90
2018-02-12T11:37:41.846Z,23.23
2018-02-12T11:40:08.300Z,21.33
2018-02-12T11:42:34.886Z,17.80
2018-02-12T11:45:01.442Z,25.47
2018-02-12T11:47:27.922Z,28.93
2018-02-12T11:49:55.205Z,20.60
2018-02-12T11:52:22.480Z,15.87
2018-02-12T11:54:48.929Z,23.80
2018-02-12T11:57:15.513Z,17.03
2018-02-12T11:59:42.024Z,19.60
2018-02-12T12:02:08.564Z,18.33
2018-02-12T12:04:35.018Z,19.57
2018-02-12T12:07:01.554Z,17.33
2018-02-12T12:09:28.408Z,19.53
2018-02-12T12:11:55.620Z,21.40
2018-02-12T12:14:22.071Z,24.60
2018-02-12T12:16:48.536Z,18.23
2018-02-12T12:19:14.966Z,16.53
2018-02-12T12:21:41.455Z,14.80
2018-02-12T12:24:07.941Z,14.33
2018-02-12T12:26:34.421Z,16.40
2018-02-12T12:29:00.932Z,19.57
2018-02-12T12:31:27.479Z,17.73
2018-02-12T12:33:54.029Z,22.20
2018-02-12T12:36:20.467Z,13.40
2018-02-12T12:38:46.980Z,15.40
2018-02-12T12:41:13.477Z,17.70
2018-02-12T12:43:39.901Z,13.03
2018-02-12T12:46:06.497Z,18.47
2018-02-12T12:48:32.951Z,18.67
2018-02-12T12:51:00.133Z,9.97
2018-02-12T12:53:27.571Z,15.70
2018-02-12T12:55:54.005Z,14.67
2018-02-12T12:58:20.424Z,11.13
2018-02-12T13:00:47.017Z,11.23
2018-02-12T13:03:13.488Z,22.33
2018-02-12T13:05:39.958Z,10.60
2018-02-12T13:08:06.453Z,12.73
2018-02-12T13:10:32.873Z,10.20
2018-02-12T13:12:59.344Z,5.30
2018-02-12T13:15:26.899Z,13.93
2018-02-12T13:17:53.353Z,10.43
2018-02-12T13:20:20.540Z,10.13
2018-02-12T13:22:47.102Z,16.37
2018-02-12T13:25:14.684Z,10.37
2018-02-12T13:27:41.199Z,16.17
2018-02-12T13:30:07.807Z,12.20
2018-02-12T13:32:34.278Z,12.00
2018-02-12T13:35:00.768Z,11.13
2018-02-12T13:37:27.325Z,9.60
2018-02-12T13:39:54.509Z,7.80
2018-02-12T13:42:20.935Z,9.30
2018-02-12T13:44:47.495Z,11.13
2018-02-12T13:47:14.658Z,11.37
2018-02-12T13:49:42.018Z,9.60
2018-02-12T13:52:08.631Z,10.93
2018-02-12T13:54:35.169Z,10.30
2018-02-12T13:57:01.615Z,6.33
2018-02-12T13:59:28.121Z,8.50
2018-02-12T14:01:54.527Z,11.43
2018-02-12T14:04:21.037Z,10.37
2018-02-12T14:06:47.593Z,10.57
2018-02-12T14:09:14.124Z,14.27
2018-02-12T14:11:40.638Z,4.23
2018-02-12T14:14:07.138Z,12.40
2018-02-12T14:16:33.520Z,9.10
2018-02-12T14:18:59.993Z,13.57
2018-02-12T14:21:26.599Z,7.20
2018-02-12T14:23:53.044Z,9.73
2018-02-12T14:26:19.504Z,8.63
2018-02-12T14:28:45.994Z,3.37
2018-02-12T14:31:12.567Z,7.20
2018-02-12T14:33:38.982Z,9.40
2018-02-12T14:36:05.809Z,13.50
2018-02-12T14:38:32.267Z,17.80
2018-02-12T14:40:58.763Z,9.87
2018-02-12T14:43:25.786Z,11.17
2018-02-12T14:45:52.286Z,10.57
2018-02-12T14:48:18.996Z,13.03
2018-02-12T14:50:46.217Z,5.23
2018-02-12T14:53:12.736Z,13.40
2018-02-12T14:55:39.224Z,9.50
2018-02-12T14:58:05.725Z,10.10
2018-02-12T15:00:32.165Z,6.40
2018-02-12T15:02:58.690Z,8.33
2018-02-12T15:05:25.145Z,7.03
2018-02-12T15:07:52.299Z,9.13
2018-02-12T15:10:18.696Z,8.40
2018-02-12T15:12:45.313Z,7.13
2018-02-12T15:15:11.760Z,9.70
2018-02-12T15:17:38.262Z,10.20
2018-02-12T15:20:04.883Z,10.13
2018-02-12T15:22:31.360Z,6.50
2018-02-12T15:24:57.833Z,5.33
2018-02-12T15:27:24.362Z,7.50
2018-02-12T15:29:50.841Z,10.77
2018-02-12T15:32:17.298Z,7.77
2018-02-12T15:34:43.877Z,11.80
2018-02-12T15:37:10.296Z,5.87
2018-02-12T15:39:36.814Z,7.73
2018-02-12T15:42:03.253Z,6.67
2018-02-12T15:44:29.712Z,23.13
2018-02-12T15:46:56.172Z,14.47
2018-02-12T15:49:22.604Z,11.73
2018-02-12T15:51:49.061Z,9.10
2018-02-12T15:54:15.593Z,8.70
2018-02-12T15:56:42.443Z,11.73
2018-02-12T15:59:09.004Z,6.33
2018-02-12T16:01:35.449Z,7.43
2018-02-12T16:04:02.773Z,8.47
2018-02-12T16:06:29.329Z,8.70
2018-02-12T16:08:55.905Z,6.77
2018-02-12T16:11:22.393Z,6.40
2018-02-12T16:13:49.678Z,10.07
2018-02-12T16:16:16.875Z,8.03
2018-02-12T16:18:43.486Z,7.17
2018-02-12T16:21:10.839Z,5.50
2018-02-12T16:23:37.357Z,8.07
2018-02-12T16:26:04.947Z,7.33
2018-02-12T16:28:31.345Z,8.67
2018-02-12T16:30:57.883Z,6.60
2018-02-12T16:33:25.157Z,11.13
2018-02-12T16:35:51.663Z,12.93
2018-02-12T16:38:19.941Z,10.80
2018-02-12T16:40:46.426Z,7.27
2018-02-12T16:43:12.826Z,9.17
2018-02-12T16:45:40.142Z,14.23
2018-02-12T16:48:07.575Z,10.53
2018-02-12T16:50:41.007Z,7.87
2018-02-12T16:53:07.481Z,8.40
2018-02-12T16:55:34.279Z,9.93
2018-02-12T16:58:00.735Z,9.90
2018-02-12T17:00:27.209Z,14.43
2018-02-12T17:02:53.964Z,10.47
2018-02-12T17:05:20.619Z,13.17
2018-02-12T17:07:47.093Z,9.70
2018-02-12T17:10:14.299Z,11.70
2018-02-12T17:12:40.750Z,6.80
2018-02-12T17:15:07.934Z,9.37
2018-02-12T17:17:34.495Z,12.73
2018-02-12T17:20:00.953Z,9.17
2018-02-12T17:22:27.478Z,17.70
2018-02-12T17:24:53.946Z,12.30
2018-02-12T17:27:20.621Z,10.00
2018-02-12T17:29:47.099Z,12.10
2018-02-12T17:32:13.484Z,10.93
2018-02-12T17:34:42.281Z,6.77
2018-02-12T17:37:08.839Z,6.30
2018-02-12T17:39:35.236Z,7.17
2018-02-12T17:42:01.956Z,11.87
2018-02-12T17:44:28.373Z,14.40
2018-02-12T17:46:54.824Z,12.40
2018-02-12T17:49:22.446Z,8.80
2018-02-12T17:51:48.892Z,11.70
2018-02-12T17:54:15.340Z,14.07
2018-02-12T17:56:43.154Z,6.30
2018-02-12T17:59:10.240Z,6.90
2018-02-12T18:01:37.611Z,10.87
2018-02-12T18:04:04.248Z,6.97
2018-02-12T18:06:31.617Z,10.30
2018-02-12T18:08:58.784Z,10.03
2018-02-12T18:11:26.093Z,9.60
2018-02-12T18:13:52.868Z,8.77
2018-02-12T18:16:19.424Z,9.90
2018-02-12T18:18:46.787Z,12.97
2018-02-12T18:21:14.032Z,12.47
2018-02-12T18:23:40.597Z,10.97
2018-02-12T18:26:08.037Z,11.73
2018-02-12T18:28:34.503Z,4.10
2018-02-12T18:31:00.886Z,11.10
2018-02-12T18:33:28.403Z,15.17
2018-02-12T18:35:54.879Z,13.77
2018-02-12T18:38:21.956Z,8.53
2018-02-12T18:40:48.638Z,7.77
2018-02-12T18:43:15.095Z,9.53
2018-02-12T18:45:41.520Z,6.70
2018-02-12T18:48:09.023Z,9.23
2018-02-12T18:50:35.414Z,10.50
2018-02-12T18:53:01.862Z,14.70
2018-02-12T18:55:29.381Z,10.53
2018-02-12T18:57:55.865Z,8.93
2018-02-12T19:00:23.500Z,5.83
2018-02-12T19:02:50.754Z,13.73
2018-02-12T19:05:17.943Z,10.93
2018-02-12T19:07:44.424Z,13.50
2018-02-12T19:10:11.004Z,13.77
2018-02-12T19:12:38.170Z,9.50
2018-02-12T19:15:04.572Z,9.07
2018-02-12T19:17:32.697Z,10.67
2018-02-12T19:19:59.179Z,5.43
2018-02-12T19:22:25.768Z,6.47
2018-02-12T19:24:53.105Z,7.63
2018-02-12T19:27:19.755Z,7.90
2018-02-12T19:29:46.147Z,7.50
2018-02-12T19:32:13.539Z,13.73
2018-02-12T19:34:39.980Z,13.07
2018-02-12T19:37:06.381Z,7.53
2018-02-12T19:39:33.144Z,6.40
2018-02-12T19:41:59.576Z,6.68
2018-02-12T19:44:26.072Z,4.50
2018-02-12T19:46:52.519Z,7.63
2018-02-12T19:49:19.730Z,7.27
2018-02-12T19:51:46.212Z,10.60
2018-02-12T19:54:13.708Z,4.43
2018-02-12T19:56:40.916Z,6.47
2018-02-12T19:59:08.191Z,8.37
2018-02-12T20:01:34.673Z,8.80
2018-02-12T20:04:01.520Z,7.63
2018-02-12T20:06:28.738Z,4.83
2018-02-12T20:08:55.966Z,8.30
2018-02-12T20:11:22.400Z,4.10
2018-02-12T20:13:48.784Z,5.57
2018-02-12T20:16:15.184Z,2.73
2018-02-12T20:18:42.400Z,4.63
2018-02-12T20:21:08.915Z,6.57
2018-02-12T20:23:35.433Z,3.00
2018-02-12T20:26:02.016Z,6.50
2018-02-12T20:28:29.196Z,4.53
2018-02-12T20:30:56.160Z,2.28
2018-02-12T20:33:22.658Z,3.60
2018-02-12T20:35:49.137Z,4.10
2018-02-12T20:38:16.297Z,1.62
2018-02-12T20:40:43.150Z,5.10
2018-02-12T20:43:09.603Z,5.15
2018-02-12T20:45:36.737Z,4.63
2018-02-12T20:48:03.819Z,6.20
2018-02-12T20:50:30.240Z,3.60
2018-02-12T20:52:56.696Z,5.10
2018-02-12T20:55:23.548Z,5.67
2018-02-12T20:57:50.301Z,2.77
2018-02-12T21:00:16.928Z,6.63
2018-02-12T21:02:43.422Z,5.50
2018-02-12T21:05:10.794Z,4.40
2018-02-12T21:07:37.260Z,4.68
2018-02-12T21:10:03.724Z,7.20
2018-02-12T21:12:30.121Z,5.43
2018-02-12T21:14:56.614Z,4.23
2018-02-12T21:17:23.231Z,6.03
2018-02-12T21:19:50.384Z,9.03
2018-02-12T21:22:16.915Z,97.33
2018-02-12T21:24:43.397Z,3.53
2018-02-12T21:27:09.855Z,4.03
2018-02-12T21:29:36.332Z,7.07
2018-02-12T21:32:02.823Z,3.40
2018-02-12T21:34:29.248Z,2.97
2018-02-12T21:36:55.766Z,4.47
2018-02-12T21:39:22.486Z,6.53
2018-02-12T21:41:48.900Z,5.33
2018-02-12T21:44:15.363Z,2.97
2018-02-12T21:46:42.660Z,3.57
2018-02-12T21:49:09.172Z,5.60
2018-02-12T21:51:35.586Z,2.00
2018-02-12T21:54:02.809Z,2.03
2018-02-12T21:56:29.213Z,3.62
2018-02-12T21:58:55.658Z,1.70
2018-02-12T22:01:23.214Z,2.03
2018-02-12T22:03:49.612Z,4.40
2018-02-12T22:06:16.123Z,2.40
2018-02-12T22:08:42.672Z,1.50
2018-02-12T22:11:09.856Z,2.60
2018-02-12T22:13:36.256Z,1.45
2018-02-12T22:16:03.609Z,2.40
2018-02-12T22:18:30.062Z,1.80
2018-02-12T22:20:56.448Z,2.93
2018-02-12T22:23:22.988Z,2.53
2018-02-12T23:22:48.804Z,2.30
2018-02-12T23:25:15.166Z,3.10
2018-02-12T23:27:41.557Z,4.73
2018-02-12T23:30:08.323Z,2.77
2018-02-12T23:32:34.860Z,2.47
2018-02-12T23:35:02.041Z,4.90
2018-02-12T23:37:28.474Z,4.62
2018-02-12T23:39:54.873Z,2.00
2018-02-12T23:42:21.292Z,5.57
2018-02-12T23:44:47.806Z,2.40
2018-02-12T23:47:14.958Z,3.73
2018-02-12T23:49:41.365Z,4.87
2018-02-12T23:52:07.877Z,2.40
2018-02-12T23:54:35.073Z,1.37
2018-02-12T23:57:01.540Z,3.87
2018-02-12T23:59:28.552Z,6.83
